sensor_id;sensor_type;location;lat;lon;timestamp;pressure;altitude;pressure_sealevel;temperature;humidity
8573;BME280;4324;42.012;24.872;2023-04-23T00:01:05;98933.63;;;13.63;72.11
8573;BME280;4324;42.012;24.872;2023-04-23T00:03:34;98930.31;;;13.61;72.07
8573;BME280;4324;42.012;24.872;2023-04-23T00:06:04;98941.34;;;13.58;71.99
8573;BME280;4324;42.012;24.872;2023-04-23T00:08:33;98919.28;;;13.42;71.86
8573;BME280;4324;42.012;24.872;2023-04-23T00:11:01;98915.25;;;13.31;71.86
8573;BME280;4324;42.012;24.872;2023-04-23T00:13:29;98906.50;;;13.23;72.00
8573;BME280;4324;42.012;24.872;2023-04-23T00:15:56;98908.91;;;13.18;71.91
8573;BME280;4324;42.012;24.872;2023-04-23T00:18:23;98865.56;;;12.88;71.63
8573;BME280;4324;42.012;24.872;2023-04-23T00:20:50;98931.72;;;13.27;71.32
8573;BME280;4324;42.012;24.872;2023-04-23T00:23:17;98915.69;;;13.05;70.54
8573;BME280;4324;42.012;24.872;2023-04-23T00:25:45;98933.38;;;13.13;70.61
8573;BME280;4324;42.012;24.872;2023-04-23T00:28:12;98915.16;;;12.95;71.35
8573;BME280;4324;42.012;24.872;2023-04-23T00:30:39;98939.06;;;13.10;70.67
8573;BME280;4324;42.012;24.872;2023-04-23T00:33:06;98950.06;;;13.07;70.29
8573;BME280;4324;42.012;24.872;2023-04-23T00:35:33;98940.97;;;13.01;70.96
8573;BME280;4324;42.012;24.872;2023-04-23T00:38:00;98930.63;;;12.92;70.92
8573;BME280;4324;42.012;24.872;2023-04-23T00:40:27;98928.13;;;12.90;71.10
8573;BME280;4324;42.012;24.872;2023-04-23T00:42:56;98947.50;;;12.99;70.80
8573;BME280;4324;42.012;24.872;2023-04-23T00:45:23;98937.59;;;12.93;70.70
8573;BME280;4324;42.012;24.872;2023-04-23T00:47:52;98931.53;;;12.84;71.10
8573;BME280;4324;42.012;24.872;2023-04-23T00:50:19;98947.03;;;12.95;71.32
8573;BME280;4324;42.012;24.872;2023-04-23T00:52:46;98893.75;;;12.59;70.87
8573;BME280;4324;42.012;24.872;2023-04-23T00:55:13;98928.13;;;12.75;70.76
8573;BME280;4324;42.012;24.872;2023-04-23T00:57:40;98949.47;;;12.82;71.45
8573;BME280;4324;42.012;24.872;2023-04-23T01:00:11;98922.44;;;12.64;71.51
8573;BME280;4324;42.012;24.872;2023-04-23T01:02:40;98945.53;;;12.78;71.91
8573;BME280;4324;42.012;24.872;2023-04-23T01:05:09;98952.13;;;12.82;71.15
8573;BME280;4324;42.012;24.872;2023-04-23T01:07:37;98938.84;;;12.67;70.77
8573;BME280;4324;42.012;24.872;2023-04-23T01:10:05;98956.38;;;12.76;71.13
8573;BME280;4324;42.012;24.872;2023-04-23T01:12:33;98947.94;;;12.73;71.62
8573;BME280;4324;42.012;24.872;2023-04-23T01:15:00;98957.91;;;12.71;71.11
8573;BME280;4324;42.012;24.872;2023-04-23T01:17:29;98958.56;;;12.73;71.11
8573;BME280;4324;42.012;24.872;2023-04-23T01:19:57;98953.41;;;12.71;71.23
8573;BME280;4324;42.012;24.872;2023-04-23T01:22:25;98942.22;;;12.61;71.39
8573;BME280;4324;42.012;24.872;2023-04-23T01:24:52;98952.22;;;12.74;71.67
8573;BME280;4324;42.012;24.872;2023-04-23T01:27:19;98944.06;;;12.75;71.25
8573;BME280;4324;42.012;24.872;2023-04-23T01:29:49;98938.00;;;12.67;71.03
8573;BME280;4324;42.012;24.872;2023-04-23T01:32:16;98918.22;;;12.54;71.52
8573;BME280;4324;42.012;24.872;2023-04-23T01:34:45;98911.00;;;12.63;71.91
8573;BME280;4324;42.012;24.872;2023-04-23T01:37:14;98949.59;;;12.89;71.83
8573;BME280;4324;42.012;24.872;2023-04-23T01:39:43;98947.75;;;12.89;71.10
8573;BME280;4324;42.012;24.872;2023-04-23T01:42:10;98931.25;;;12.79;71.03
8573;BME280;4324;42.012;24.872;2023-04-23T01:44:37;98936.56;;;12.79;71.42
8573;BME280;4324;42.012;24.872;2023-04-23T01:47:04;98954.34;;;12.93;71.27
8573;BME280;4324;42.012;24.872;2023-04-23T01:49:32;98960.03;;;12.90;71.25
8573;BME280;4324;42.012;24.872;2023-04-23T01:51:59;98946.81;;;12.82;70.85
8573;BME280;4324;42.012;24.872;2023-04-23T01:54:26;98943.81;;;12.85;70.56
8573;BME280;4324;42.012;24.872;2023-04-23T01:56:54;98939.31;;;12.86;71.17
8573;BME280;4324;42.012;24.872;2023-04-23T01:59:23;98957.47;;;12.97;71.28
8573;BME280;4324;42.012;24.872;2023-04-23T02:01:50;98950.25;;;12.91;71.32
8573;BME280;4324;42.012;24.872;2023-04-23T02:04:18;98952.97;;;12.97;70.67
8573;BME280;4324;42.012;24.872;2023-04-23T02:06:47;98960.31;;;12.95;71.49
8573;BME280;4324;42.012;24.872;2023-04-23T02:09:15;98952.50;;;12.94;72.00
8573;BME280;4324;42.012;24.872;2023-04-23T02:11:42;98959.66;;;12.93;71.99
8573;BME280;4324;42.012;24.872;2023-04-23T02:14:10;98950.25;;;12.91;71.25
8573;BME280;4324;42.012;24.872;2023-04-23T02:16:37;98952.91;;;12.91;71.58
8573;BME280;4324;42.012;24.872;2023-04-23T02:19:04;98954.72;;;12.90;71.83
8573;BME280;4324;42.012;24.872;2023-04-23T02:21:31;98946.09;;;12.88;72.30
8573;BME280;4324;42.012;24.872;2023-04-23T02:23:58;98944.06;;;12.90;72.84
8573;BME280;4324;42.012;24.872;2023-04-23T02:26:25;98946.22;;;12.95;72.50
8573;BME280;4324;42.012;24.872;2023-04-23T02:28:53;98942.44;;;12.89;72.52
8573;BME280;4324;42.012;24.872;2023-04-23T02:31:21;98943.72;;;12.93;72.71
8573;BME280;4324;42.012;24.872;2023-04-23T02:33:48;98937.59;;;12.93;72.96
8573;BME280;4324;42.012;24.872;2023-04-23T02:36:15;98952.25;;;13.03;72.25
8573;BME280;4324;42.012;24.872;2023-04-23T02:38:42;98949.59;;;13.03;72.25
8573;BME280;4324;42.012;24.872;2023-04-23T02:41:12;98953.28;;;13.02;72.60
8573;BME280;4324;42.012;24.872;2023-04-23T02:43:38;98956.91;;;13.01;72.87
8573;BME280;4324;42.012;24.872;2023-04-23T02:46:05;98948.31;;;12.99;72.90
8573;BME280;4324;42.012;24.872;2023-04-23T02:48:39;98952.25;;;13.03;73.08
8573;BME280;4324;42.012;24.872;2023-04-23T02:51:08;98939.22;;;12.94;72.47
8573;BME280;4324;42.012;24.872;2023-04-23T02:53:35;98951.91;;;13.06;72.75
8573;BME280;4324;42.012;24.872;2023-04-23T02:56:02;98958.13;;;13.14;72.50
8573;BME280;4324;42.012;24.872;2023-04-23T02:58:29;98952.34;;;13.10;72.57
8573;BME280;4324;42.012;24.872;2023-04-23T03:00:57;98903.94;;;12.85;71.77
8573;BME280;4324;42.012;24.872;2023-04-23T03:03:28;98957.13;;;13.15;71.41
8573;BME280;4324;42.012;24.872;2023-04-23T03:05:58;98952.97;;;13.12;72.21
8573;BME280;4324;42.012;24.872;2023-04-23T03:08:25;98945.09;;;13.04;72.31
8573;BME280;4324;42.012;24.872;2023-04-23T03:10:52;98946.13;;;13.03;72.07
8573;BME280;4324;42.012;24.872;2023-04-23T03:13:19;98951.78;;;13.00;72.16
8573;BME280;4324;42.012;24.872;2023-04-23T03:15:47;98932.16;;;12.86;72.32
8573;BME280;4324;42.012;24.872;2023-04-23T03:18:14;98939.31;;;12.86;72.80
8573;BME280;4324;42.012;24.872;2023-04-23T03:20:41;98962.63;;;12.98;73.04
8573;BME280;4324;42.012;24.872;2023-04-23T03:23:09;98946.94;;;12.89;73.15
8573;BME280;4324;42.012;24.872;2023-04-23T03:25:36;98964.63;;;12.96;72.90
8573;BME280;4324;42.012;24.872;2023-04-23T03:28:03;98960.03;;;12.90;73.39
8573;BME280;4324;42.012;24.872;2023-04-23T03:30:30;98964.53;;;12.90;73.72
8573;BME280;4324;42.012;24.872;2023-04-23T03:32:58;98943.44;;;12.73;73.83
8573;BME280;4324;42.012;24.872;2023-04-23T03:35:25;98972.69;;;12.88;73.05
8573;BME280;4324;42.012;24.872;2023-04-23T03:37:52;98912.25;;;12.52;72.83
8573;BME280;4324;42.012;24.872;2023-04-23T03:40:20;98979.66;;;12.89;73.14
8573;BME280;4324;42.012;24.872;2023-04-23T03:42:47;98925.06;;;12.49;73.35
8573;BME280;4324;42.012;24.872;2023-04-23T03:45:15;98990.28;;;12.89;73.10
8573;BME280;4324;42.012;24.872;2023-04-23T03:47:42;98990.28;;;12.89;72.51
8573;BME280;4324;42.012;24.872;2023-04-23T03:50:10;98978.25;;;12.78;72.80
8573;BME280;4324;42.012;24.872;2023-04-23T03:52:38;98996.41;;;12.90;72.47
8573;BME280;4324;42.012;24.872;2023-04-23T03:55:05;98995.22;;;12.92;72.25
8573;BME280;4324;42.012;24.872;2023-04-23T03:57:34;98974.78;;;12.78;71.31
8573;BME280;4324;42.012;24.872;2023-04-23T04:00:02;99003.88;;;12.94;71.14
8573;BME280;4324;42.012;24.872;2023-04-23T04:02:29;98932.88;;;12.50;71.55
8573;BME280;4324;42.012;24.872;2023-04-23T04:04:56;98979.19;;;12.86;71.32
8573;BME280;4324;42.012;24.872;2023-04-23T04:07:23;99002.66;;;12.97;71.68
8573;BME280;4324;42.012;24.872;2023-04-23T04:09:51;99007.81;;;12.98;71.12
8573;BME280;4324;42.012;24.872;2023-04-23T04:12:18;99015.13;;;12.96;70.39
8573;BME280;4324;42.012;24.872;2023-04-23T04:14:47;99009.91;;;13.03;70.24
8573;BME280;4324;42.012;24.872;2023-04-23T04:17:14;98975.44;;;12.80;70.59
8573;BME280;4324;42.012;24.872;2023-04-23T04:19:40;98959.53;;;12.57;70.55
8573;BME280;4324;42.012;24.872;2023-04-23T04:22:08;99022.97;;;12.90;69.98
8573;BME280;4324;42.012;24.872;2023-04-23T04:24:34;99021.97;;;12.76;69.96
8573;BME280;4324;42.012;24.872;2023-04-23T04:27:02;99007.59;;;12.47;70.16
8573;BME280;4324;42.012;24.872;2023-04-23T04:29:30;99011.00;;;12.33;70.30
8573;BME280;4324;42.012;24.872;2023-04-23T04:31:59;99038.72;;;12.30;70.70
8573;BME280;4324;42.012;24.872;2023-04-23T04:34:27;99032.84;;;12.20;70.18
8573;BME280;4324;42.012;24.872;2023-04-23T04:36:54;99039.47;;;12.16;70.50
8573;BME280;4324;42.012;24.872;2023-04-23T04:39:21;99012.41;;;11.98;71.26
8573;BME280;4324;42.012;24.872;2023-04-23T04:41:48;98952.69;;;11.62;71.23
8573;BME280;4324;42.012;24.872;2023-04-23T04:44:15;99044.28;;;12.21;71.28
8573;BME280;4324;42.012;24.872;2023-04-23T04:46:42;99037.19;;;12.13;70.80
8573;BME280;4324;42.012;24.872;2023-04-23T04:49:11;99044.75;;;12.24;70.78
8573;BME280;4324;42.012;24.872;2023-04-23T04:51:39;99037.97;;;12.22;71.39
8573;BME280;4324;42.012;24.872;2023-04-23T04:54:06;99035.59;;;12.27;71.76
8573;BME280;4324;42.012;24.872;2023-04-23T04:56:33;99049.00;;;12.33;72.03
8573;BME280;4324;42.012;24.872;2023-04-23T04:59:01;99045.19;;;12.36;71.86
8573;BME280;4324;42.012;24.872;2023-04-23T05:01:28;99038.84;;;12.37;72.39
8573;BME280;4324;42.012;24.872;2023-04-23T05:03:55;99031.28;;;12.26;73.26
8573;BME280;4324;42.012;24.872;2023-04-23T05:06:24;99057.50;;;12.52;73.44
8573;BME280;4324;42.012;24.872;2023-04-23T05:08:53;99044.69;;;12.55;73.64
8573;BME280;4324;42.012;24.872;2023-04-23T05:11:20;99059.88;;;12.70;73.56
8573;BME280;4324;42.012;24.872;2023-04-23T05:13:47;99055.13;;;12.80;73.93
8573;BME280;4324;42.012;24.872;2023-04-23T05:16:14;99039.19;;;12.80;73.82
8573;BME280;4324;42.012;24.872;2023-04-23T05:18:49;99053.97;;;12.97;74.24
8573;BME280;4324;42.012;24.872;2023-04-23T05:21:19;99067.94;;;13.14;73.75
8573;BME280;4324;42.012;24.872;2023-04-23T05:23:47;99066.38;;;13.20;74.25
8573;BME280;4324;42.012;24.872;2023-04-23T05:26:15;99008.16;;;12.95;74.10
8573;BME280;4324;42.012;24.872;2023-04-23T05:28:42;99061.97;;;13.35;74.33
8573;BME280;4324;42.012;24.872;2023-04-23T05:31:09;99060.59;;;13.39;74.41
8573;BME280;4324;42.012;24.872;2023-04-23T05:33:36;99072.41;;;13.37;74.11
8573;BME280;4324;42.012;24.872;2023-04-23T05:36:03;99074.81;;;13.31;73.92
8573;BME280;4324;42.012;24.872;2023-04-23T05:38:30;99070.84;;;13.27;74.25
8573;BME280;4324;42.012;24.872;2023-04-23T05:40:59;99080.34;;;13.22;74.83
8573;BME280;4324;42.012;24.872;2023-04-23T05:43:26;99080.44;;;13.14;76.10
8573;BME280;4324;42.012;24.872;2023-04-23T05:45:52;99083.44;;;13.11;76.65
8573;BME280;4324;42.012;24.872;2023-04-23T05:48:19;99080.13;;;13.08;77.05
8573;BME280;4324;42.012;24.872;2023-04-23T05:50:46;99089.03;;;13.16;76.64
8573;BME280;4324;42.012;24.872;2023-04-23T05:53:14;99078.22;;;13.17;76.71
8573;BME280;4324;42.012;24.872;2023-04-23T05:55:41;99089.56;;;13.34;76.71
8573;BME280;4324;42.012;24.872;2023-04-23T05:58:09;99093.69;;;13.37;76.75
8573;BME280;4324;42.012;24.872;2023-04-23T06:00:36;99082.03;;;13.38;76.90
8573;BME280;4324;42.012;24.872;2023-04-23T06:03:05;99079.38;;;13.38;76.70
8573;BME280;4324;42.012;24.872;2023-04-23T06:05:32;99105.72;;;13.47;76.83
8573;BME280;4324;42.012;24.872;2023-04-23T06:07:58;99095.09;;;13.47;77.01
8573;BME280;4324;42.012;24.872;2023-04-23T06:10:26;99094.44;;;13.45;77.23
8573;BME280;4324;42.012;24.872;2023-04-23T06:12:52;99102.50;;;13.52;77.20
8573;BME280;4324;42.012;24.872;2023-04-23T06:15:21;99095.66;;;13.58;76.70
8573;BME280;4324;42.012;24.872;2023-04-23T06:17:51;99086.38;;;13.68;76.79
8573;BME280;4324;42.012;24.872;2023-04-23T06:20:18;99082.41;;;13.79;76.39
8573;BME280;4324;42.012;24.872;2023-04-23T06:22:45;99082.03;;;13.97;75.92
8573;BME280;4324;42.012;24.872;2023-04-23T06:25:12;99066.72;;;13.99;75.52
8573;BME280;4324;42.012;24.872;2023-04-23T06:27:39;99092.38;;;14.21;75.16
8573;BME280;4324;42.012;24.872;2023-04-23T06:30:07;99092.16;;;14.23;74.96
8573;BME280;4324;42.012;24.872;2023-04-23T06:32:35;99093.34;;;14.35;74.77
8573;BME280;4324;42.012;24.872;2023-04-23T06:35:02;99068.38;;;14.36;74.68
8573;BME280;4324;42.012;24.872;2023-04-23T06:37:29;99091.75;;;14.56;74.22
8573;BME280;4324;42.012;24.872;2023-04-23T06:39:57;99094.41;;;14.56;74.11
8573;BME280;4324;42.012;24.872;2023-04-23T06:42:24;99094.41;;;14.56;74.16
8573;BME280;4324;42.012;24.872;2023-04-23T06:44:51;99084.94;;;14.53;74.17
8573;BME280;4324;42.012;24.872;2023-04-23T06:47:18;99089.97;;;14.63;74.18
8573;BME280;4324;42.012;24.872;2023-04-23T06:49:47;99097.84;;;14.71;73.82
8573;BME280;4324;42.012;24.872;2023-04-23T06:52:13;99095.44;;;14.76;73.73
8573;BME280;4324;42.012;24.872;2023-04-23T06:54:40;99081.47;;;14.74;73.50
8573;BME280;4324;42.012;24.872;2023-04-23T06:57:08;99087.31;;;14.84;73.55
8573;BME280;4324;42.012;24.872;2023-04-23T06:59:35;99095.94;;;14.86;73.39
8573;BME280;4324;42.012;24.872;2023-04-23T07:02:02;99090.34;;;14.81;73.61
8573;BME280;4324;42.012;24.872;2023-04-23T07:04:29;99100.00;;;14.82;73.68
8573;BME280;4324;42.012;24.872;2023-04-23T07:06:57;99095.81;;;14.94;73.70
8573;BME280;4324;42.012;24.872;2023-04-23T07:09:25;99094.28;;;15.07;73.33
8573;BME280;4324;42.012;24.872;2023-04-23T07:11:55;99075.22;;;15.10;72.96
8573;BME280;4324;42.012;24.872;2023-04-23T07:14:22;99081.63;;;15.15;72.63
8573;BME280;4324;42.012;24.872;2023-04-23T07:16:49;99092.56;;;15.27;72.73
8573;BME280;4324;42.012;24.872;2023-04-23T07:19:19;99093.28;;;15.36;72.45
8573;BME280;4324;42.012;24.872;2023-04-23T07:21:45;99095.34;;;15.40;72.33
8573;BME280;4324;42.012;24.872;2023-04-23T07:24:14;99087.78;;;15.44;72.06
8573;BME280;4324;42.012;24.872;2023-04-23T07:26:41;99100.78;;;15.54;71.79
8573;BME280;4324;42.012;24.872;2023-04-23T07:29:08;99082.28;;;15.52;71.55
8573;BME280;4324;42.012;24.872;2023-04-23T07:31:35;99088.28;;;15.61;71.46
8573;BME280;4324;42.012;24.872;2023-04-23T07:34:03;99096.19;;;15.69;71.19
8573;BME280;4324;42.012;24.872;2023-04-23T07:36:31;99097.44;;;15.73;70.92
8573;BME280;4324;42.012;24.872;2023-04-23T07:38:58;99102.97;;;15.71;70.72
8573;BME280;4324;42.012;24.872;2023-04-23T07:41:26;99089.22;;;15.75;70.59
8573;BME280;4324;42.012;24.872;2023-04-23T07:43:53;99058.69;;;15.56;70.31
8573;BME280;4324;42.012;24.872;2023-04-23T07:46:21;99076.09;;;15.73;70.28
8573;BME280;4324;42.012;24.872;2023-04-23T07:48:47;99083.56;;;15.91;70.08
8573;BME280;4324;42.012;24.872;2023-04-23T07:51:14;99086.53;;;16.09;69.75
8573;BME280;4324;42.012;24.872;2023-04-23T07:53:41;99081.63;;;16.26;69.49
8573;BME280;4324;42.012;24.872;2023-04-23T07:56:08;99086.44;;;16.44;69.02
8573;BME280;4324;42.012;24.872;2023-04-23T07:58:37;99071.63;;;16.48;68.67
8573;BME280;4324;42.012;24.872;2023-04-23T08:01:04;99062.78;;;16.48;68.03
8573;BME280;4324;42.012;24.872;2023-04-23T08:03:31;99048.81;;;16.39;67.66
8573;BME280;4324;42.012;24.872;2023-04-23T08:05:58;99070.41;;;16.64;67.62
8573;BME280;4324;42.012;24.872;2023-04-23T08:08:25;99073.97;;;16.78;67.24
8573;BME280;4324;42.012;24.872;2023-04-23T08:10:51;99024.53;;;16.40;66.78
8573;BME280;4324;42.012;24.872;2023-04-23T08:13:18;99061.78;;;16.68;66.85
8573;BME280;4324;42.012;24.872;2023-04-23T08:15:47;99072.31;;;16.83;66.97
8573;BME280;4324;42.012;24.872;2023-04-23T08:18:16;99069.88;;;16.95;66.62
8573;BME280;4324;42.012;24.872;2023-04-23T08:20:43;99067.41;;;17.00;66.07
8573;BME280;4324;42.012;24.872;2023-04-23T08:23:11;99045.16;;;16.86;65.30
8573;BME280;4324;42.012;24.872;2023-04-23T08:25:37;99069.66;;;17.03;65.46
8573;BME280;4324;42.012;24.872;2023-04-23T08:28:05;99058.75;;;17.05;65.28
8573;BME280;4324;42.012;24.872;2023-04-23T08:30:31;99055.03;;;17.12;65.22
8573;BME280;4324;42.012;24.872;2023-04-23T08:33:00;99059.56;;;17.32;64.83
8573;BME280;4324;42.012;24.872;2023-04-23T08:35:27;99057.47;;;17.47;64.26
8573;BME280;4324;42.012;24.872;2023-04-23T08:37:53;99055.16;;;17.64;63.84
8573;BME280;4324;42.012;24.872;2023-04-23T08:40:20;99051.84;;;17.69;63.52
8573;BME280;4324;42.012;24.872;2023-04-23T08:42:49;99051.03;;;17.68;62.73
8573;BME280;4324;42.012;24.872;2023-04-23T08:45:16;99040.16;;;17.56;62.96
8573;BME280;4324;42.012;24.872;2023-04-23T08:47:44;99048.34;;;17.68;63.17
8573;BME280;4324;42.012;24.872;2023-04-23T08:50:13;99047.13;;;17.77;62.67
8573;BME280;4324;42.012;24.872;2023-04-23T08:52:45;99040.06;;;17.89;61.78
8573;BME280;4324;42.012;24.872;2023-04-23T08:55:13;99033.91;;;17.82;60.72
8573;BME280;4324;42.012;24.872;2023-04-23T08:57:41;99051.19;;;17.86;60.56
8573;BME280;4324;42.012;24.872;2023-04-23T09:00:09;99051.81;;;17.88;60.72
8573;BME280;4324;42.012;24.872;2023-04-23T09:02:39;99050.78;;;17.89;60.18
8573;BME280;4324;42.012;24.872;2023-04-23T09:05:07;99040.72;;;17.78;60.29
8573;BME280;4324;42.012;24.872;2023-04-23T09:07:35;99037.22;;;17.78;60.33
8573;BME280;4324;42.012;24.872;2023-04-23T09:10:03;99042.16;;;17.81;60.08
8573;BME280;4324;42.012;24.872;2023-04-23T09:12:31;99030.19;;;17.83;60.39
8573;BME280;4324;42.012;24.872;2023-04-23T09:14:58;99027.03;;;18.00;60.21
8573;BME280;4324;42.012;24.872;2023-04-23T09:17:27;99036.19;;;18.24;59.65
8573;BME280;4324;42.012;24.872;2023-04-23T09:19:55;99023.84;;;18.23;58.89
8573;BME280;4324;42.012;24.872;2023-04-23T09:22:39;99032.81;;;18.35;58.92
8573;BME280;4324;42.012;24.872;2023-04-23T09:25:07;99025.78;;;18.41;58.32
8573;BME280;4324;42.012;24.872;2023-04-23T09:27:34;99024.72;;;18.48;57.53
8573;BME280;4324;42.012;24.872;2023-04-23T09:30:03;99026.47;;;18.61;57.31
8573;BME280;4324;42.012;24.872;2023-04-23T09:32:32;99025.94;;;18.84;56.89
8573;BME280;4324;42.012;24.872;2023-04-23T09:35:02;99016.44;;;19.06;56.42
8573;BME280;4324;42.012;24.872;2023-04-23T09:37:30;99012.81;;;19.19;55.88
8573;BME280;4324;42.012;24.872;2023-04-23T09:40:06;99009.56;;;19.36;55.42
8573;BME280;4324;42.012;24.872;2023-04-23T09:42:34;99000.16;;;19.45;55.18
8573;BME280;4324;42.012;24.872;2023-04-23T09:45:03;99007.03;;;19.59;54.89
8573;BME280;4324;42.012;24.872;2023-04-23T09:47:31;99014.53;;;19.50;54.34
8573;BME280;4324;42.012;24.872;2023-04-23T09:50:00;99005.97;;;19.42;54.06
8573;BME280;4324;42.012;24.872;2023-04-23T09:52:27;99010.50;;;19.23;53.31
8573;BME280;4324;42.012;24.872;2023-04-23T09:54:57;98980.81;;;18.99;53.41
8573;BME280;4324;42.012;24.872;2023-04-23T09:57:25;98990.56;;;19.12;53.74
8573;BME280;4324;42.012;24.872;2023-04-23T09:59:56;99000.13;;;19.26;53.47
8573;BME280;4324;42.012;24.872;2023-04-23T10:02:26;98999.53;;;19.24;53.14
8573;BME280;4324;42.012;24.872;2023-04-23T10:04:54;98995.97;;;19.30;53.05
8573;BME280;4324;42.012;24.872;2023-04-23T10:07:21;98933.41;;;19.12;53.53
8573;BME280;4324;42.012;24.872;2023-04-23T10:09:49;98992.50;;;19.67;53.49
8573;BME280;4324;42.012;24.872;2023-04-23T10:12:16;98980.16;;;19.59;52.67
8573;BME280;4324;42.012;24.872;2023-04-23T10:14:47;98978.53;;;19.58;52.80
8573;BME280;4324;42.012;24.872;2023-04-23T10:17:18;98968.75;;;19.64;52.76
8573;BME280;4324;42.012;24.872;2023-04-23T10:19:45;98974.63;;;19.91;52.50
8573;BME280;4324;42.012;24.872;2023-04-23T10:22:14;98968.41;;;19.90;52.56
8573;BME280;4324;42.012;24.872;2023-04-23T10:24:44;98973.72;;;19.97;52.57
8573;BME280;4324;42.012;24.872;2023-04-23T10:27:14;98965.81;;;19.83;52.08
8573;BME280;4324;42.012;24.872;2023-04-23T10:29:42;98965.19;;;19.70;51.87
8573;BME280;4324;42.012;24.872;2023-04-23T10:32:11;98954.63;;;19.50;52.19
8573;BME280;4324;42.012;24.872;2023-04-23T10:34:39;98966.06;;;19.64;52.49
8573;BME280;4324;42.012;24.872;2023-04-23T10:37:07;98966.59;;;19.72;52.14
8573;BME280;4324;42.012;24.872;2023-04-23T10:39:34;98961.28;;;19.84;52.06
8573;BME280;4324;42.012;24.872;2023-04-23T10:42:03;98954.63;;;19.87;51.57
8573;BME280;4324;42.012;24.872;2023-04-23T10:44:31;98956.03;;;19.89;51.21
8573;BME280;4324;42.012;24.872;2023-04-23T10:46:59;98939.69;;;19.91;51.16
8573;BME280;4324;42.012;24.872;2023-04-23T10:49:31;98944.88;;;20.04;51.04
8573;BME280;4324;42.012;24.872;2023-04-23T10:51:58;98935.31;;;20.08;50.82
8573;BME280;4324;42.012;24.872;2023-04-23T10:54:28;98941.81;;;20.00;50.91
8573;BME280;4324;42.012;24.872;2023-04-23T10:56:58;98921.47;;;19.93;51.02
8573;BME280;4324;42.012;24.872;2023-04-23T10:59:26;98921.97;;;20.13;50.98
8573;BME280;4324;42.012;24.872;2023-04-23T11:01:56;98914.91;;;20.30;49.70
8573;BME280;4324;42.012;24.872;2023-04-23T11:04:25;98898.56;;;20.32;49.83
8573;BME280;4324;42.012;24.872;2023-04-23T11:07:04;98916.94;;;20.47;49.47
8573;BME280;4324;42.012;24.872;2023-04-23T11:09:36;98901.00;;;20.34;49.71
8573;BME280;4324;42.012;24.872;2023-04-23T11:12:06;98908.59;;;20.25;49.92
8573;BME280;4324;42.012;24.872;2023-04-23T11:14:35;98906.56;;;20.20;49.86
8573;BME280;4324;42.012;24.872;2023-04-23T11:17:03;98906.84;;;20.30;49.86
8573;BME280;4324;42.012;24.872;2023-04-23T11:19:34;98906.75;;;20.49;49.24
8573;BME280;4324;42.012;24.872;2023-04-23T11:22:03;98892.63;;;20.65;48.95
8573;BME280;4324;42.012;24.872;2023-04-23T11:24:33;98850.03;;;20.39;48.50
8573;BME280;4324;42.012;24.872;2023-04-23T11:27:06;98895.91;;;20.67;48.59
8573;BME280;4324;42.012;24.872;2023-04-23T11:29:35;98904.34;;;20.59;47.98
8573;BME280;4324;42.012;24.872;2023-04-23T11:32:02;98897.78;;;20.55;48.17
8573;BME280;4324;42.012;24.872;2023-04-23T11:34:30;98885.22;;;20.49;47.96
8573;BME280;4324;42.012;24.872;2023-04-23T11:36:58;98882.66;;;20.42;47.99
8573;BME280;4324;42.012;24.872;2023-04-23T11:39:27;98887.25;;;20.53;47.78
8573;BME280;4324;42.012;24.872;2023-04-23T11:41:54;98883.72;;;20.65;47.88
8573;BME280;4324;42.012;24.872;2023-04-23T11:44:23;98891.00;;;20.88;47.25
8573;BME280;4324;42.012;24.872;2023-04-23T11:46:50;98893.53;;;21.06;46.98
8573;BME280;4324;42.012;24.872;2023-04-23T11:49:18;98891.19;;;21.21;46.70
8573;BME280;4324;42.012;24.872;2023-04-23T11:51:45;98872.66;;;21.13;46.19
8573;BME280;4324;42.012;24.872;2023-04-23T11:54:13;98888.38;;;21.05;46.08
8573;BME280;4324;42.012;24.872;2023-04-23T11:56:42;98884.28;;;21.02;46.18
8573;BME280;4324;42.012;24.872;2023-04-23T11:59:09;98874.69;;;20.94;45.80
8573;BME280;4324;42.012;24.872;2023-04-23T12:01:40;98876.94;;;20.86;45.55
8573;BME280;4324;42.012;24.872;2023-04-23T12:04:11;98878.69;;;20.80;45.69
8573;BME280;4324;42.012;24.872;2023-04-23T12:06:40;98875.19;;;20.68;45.97
8573;BME280;4324;42.012;24.872;2023-04-23T12:09:08;98864.91;;;20.65;46.42
8573;BME280;4324;42.012;24.872;2023-04-23T12:11:36;98858.81;;;20.81;46.03
8573;BME280;4324;42.012;24.872;2023-04-23T12:14:04;98857.53;;;20.95;45.69
8573;BME280;4324;42.012;24.872;2023-04-23T12:16:35;98845.66;;;21.08;45.65
8573;BME280;4324;42.012;24.872;2023-04-23T12:19:02;98849.72;;;21.22;45.78
8573;BME280;4324;42.012;24.872;2023-04-23T12:21:29;98839.16;;;21.33;45.32
8573;BME280;4324;42.012;24.872;2023-04-23T12:23:56;98835.25;;;21.52;45.27
8573;BME280;4324;42.012;24.872;2023-04-23T12:26:24;98821.16;;;21.62;45.10
8573;BME280;4324;42.012;24.872;2023-04-23T12:28:51;98830.31;;;21.78;44.51
8573;BME280;4324;42.012;24.872;2023-04-23T12:31:21;98825.66;;;21.90;44.52
8573;BME280;4324;42.012;24.872;2023-04-23T12:33:55;98821.00;;;22.02;44.12
8573;BME280;4324;42.012;24.872;2023-04-23T12:36:26;98823.69;;;22.14;43.98
8573;BME280;4324;42.012;24.872;2023-04-23T12:38:54;98819.75;;;22.21;43.85
8573;BME280;4324;42.012;24.872;2023-04-23T12:41:21;98812.31;;;22.29;43.72
8573;BME280;4324;42.012;24.872;2023-04-23T12:43:48;98817.44;;;22.30;43.72
8573;BME280;4324;42.012;24.872;2023-04-23T12:46:15;98810.81;;;22.21;43.89
8573;BME280;4324;42.012;24.872;2023-04-23T12:48:44;98803.56;;;22.21;43.80
8573;BME280;4324;42.012;24.872;2023-04-23T12:51:11;98805.84;;;22.30;43.44
8573;BME280;4324;42.012;24.872;2023-04-23T12:53:37;98791.28;;;22.31;43.19
8573;BME280;4324;42.012;24.872;2023-04-23T12:56:04;98793.06;;;22.42;42.83
8573;BME280;4324;42.012;24.872;2023-04-23T12:58:31;98802.22;;;22.41;42.41
8573;BME280;4324;42.012;24.872;2023-04-23T13:00:58;98749.94;;;22.08;42.77
8573;BME280;4324;42.012;24.872;2023-04-23T13:03:25;98792.59;;;22.28;42.86
8573;BME280;4324;42.012;24.872;2023-04-23T13:05:53;98788.94;;;22.17;42.36
8573;BME280;4324;42.012;24.872;2023-04-23T13:08:21;98783.63;;;22.22;42.70
8573;BME280;4324;42.012;24.872;2023-04-23T13:10:56;98788.84;;;22.29;42.61
8573;BME280;4324;42.012;24.872;2023-04-23T13:13:23;98778.19;;;22.39;42.51